Time;durP1;ratioP1;P1;durP2;ratioP2;P2;SDS_P1;SDS_P2;PMS_P1;PMS_P2;Temp;Humidity;BMP_temperature;BMP_pressure;BME280_temperature;BME280_humidity;BME280_pressure;Samples;Min_cycle;Max_cycle;Signal;HPM_P1;HPM_P2
2021/12/09 00:00:50;0.00;0.00;0.62;0.00;0.00;0.62;1.87;1.30;;;21.30;26.30;;;;;;2265585;61;20372;-63
2021/12/09 00:03:40;0.00;0.00;0.62;0.00;0.00;0.62;2.30;1.37;;;21.30;26.30;;;;;;2267945;61;20377;-63
2021/12/09 00:06:29;0.00;0.00;0.62;0.00;0.00;0.62;1.60;1.13;;;21.30;26.40;;;;;;2265569;61;20416;-63
2021/12/09 00:09:18;0.00;0.00;0.62;0.00;0.00;0.62;1.97;0.97;;;21.30;26.30;;;;;;2265524;61;20391;-62
2021/12/09 00:12:06;0.00;0.00;0.62;0.00;0.00;0.62;1.50;0.80;;;21.30;26.30;;;;;;2266132;61;20400;-63
2021/12/09 00:14:51;0.00;0.00;0.62;0.00;0.00;0.62;1.40;0.80;;;21.30;26.40;;;;;;2265403;61;20365;-63
2021/12/09 00:17:36;0.00;0.00;0.62;0.00;0.00;0.62;1.70;1.00;;;21.30;26.30;;;;;;2265288;61;20404;-62
2021/12/09 00:20:20;0.00;0.00;0.62;0.00;0.00;0.62;2.00;0.97;;;21.40;26.40;;;;;;2265485;61;20408;-63
2021/12/09 00:23:07;0.00;0.00;0.62;0.00;0.00;0.62;1.60;1.13;;;21.40;26.40;;;;;;2265576;61;20380;-62
2021/12/09 00:25:52;0.00;0.00;0.62;0.00;0.00;0.62;2.33;1.40;;;21.30;26.40;;;;;;2265546;61;20464;-62
2021/12/09 00:28:38;0.00;0.00;0.62;0.00;0.00;0.62;1.70;0.93;;;21.40;26.40;;;;;;2265424;61;20395;-64
2021/12/09 00:31:23;0.00;0.00;0.62;0.00;0.00;0.62;2.53;1.00;;;21.40;26.40;;;;;;2265362;61;20384;-63
2021/12/09 00:34:08;0.00;0.00;0.62;0.00;0.00;0.62;1.67;0.90;;;21.40;26.40;;;;;;2265857;61;20433;-63
2021/12/09 00:37:04;0.00;0.00;0.62;0.00;0.00;0.62;1.40;1.00;;;21.40;26.40;;;;;;2265484;61;20404;-62
2021/12/09 00:39:51;0.00;0.00;0.62;0.00;0.00;0.62;2.23;1.00;;;21.40;26.40;;;;;;2265037;61;20404;-62
2021/12/09 00:42:36;0.00;0.00;0.62;0.00;0.00;0.62;1.30;0.80;;;21.40;26.40;;;;;;2265808;61;20365;-62
2021/12/09 00:45:22;0.00;0.00;0.62;0.00;0.00;0.62;1.40;0.80;;;21.40;26.40;;;;;;2265424;61;20472;-65
2021/12/09 00:48:06;0.00;0.00;0.62;0.00;0.00;0.62;1.97;1.30;;;21.40;26.50;;;;;;2265696;61;20368;-62
2021/12/09 00:50:52;0.00;0.00;0.62;0.00;0.00;0.62;1.60;1.03;;;21.40;26.50;;;;;;2265243;61;20419;-62
2021/12/09 00:53:37;0.00;0.00;0.62;0.00;0.00;0.62;2.60;1.00;;;21.40;26.50;;;;;;2265314;61;20377;-62
2021/12/09 00:56:22;0.00;0.00;0.62;0.00;0.00;0.62;2.27;0.97;;;21.40;26.50;;;;;;2265807;61;20404;-64
2021/12/09 00:59:08;0.00;0.00;0.62;0.00;0.00;0.62;4.97;1.10;;;21.40;26.60;;;;;;2264994;61;20370;-63
2021/12/09 01:01:54;0.00;0.00;0.62;0.00;0.00;0.62;1.67;0.90;;;21.40;26.60;;;;;;2265422;61;20381;-64
2021/12/09 01:04:39;0.00;0.00;0.62;0.00;0.00;0.62;1.60;0.90;;;21.40;26.60;;;;;;2265628;61;20481;-63
2021/12/09 01:07:24;0.00;0.00;0.62;0.00;0.00;0.62;1.60;0.80;;;21.40;26.70;;;;;;2265320;61;20364;-63
2021/12/09 01:10:12;0.00;0.00;0.62;0.00;0.00;0.62;1.40;0.87;;;21.40;26.70;;;;;;2265210;61;20376;-63
2021/12/09 01:12:57;0.00;0.00;0.62;0.00;0.00;0.62;1.67;0.87;;;21.40;26.70;;;;;;2265214;61;20357;-63
2021/12/09 01:15:42;0.00;0.00;0.62;0.00;0.00;0.62;1.40;1.00;;;21.40;26.60;;;;;;2265195;61;20698;-64
2021/12/09 01:18:29;0.00;0.00;0.62;0.00;0.00;0.62;1.50;0.90;;;21.40;26.60;;;;;;2265507;61;20388;-64
2021/12/09 01:21:13;0.00;0.00;0.62;0.00;0.00;0.62;1.53;0.90;;;21.40;26.60;;;;;;2264971;61;20384;-63
2021/12/09 01:23:58;0.00;0.00;0.62;0.00;0.00;0.62;1.67;0.90;;;21.40;26.60;;;;;;2265319;61;20389;-63
2021/12/09 01:26:45;0.00;0.00;0.62;0.00;0.00;0.62;1.60;1.00;;;21.40;26.60;;;;;;2265566;61;20380;-63
2021/12/09 01:29:39;0.00;0.00;0.62;0.00;0.00;0.62;1.53;0.87;;;21.40;27.10;;;;;;2265058;61;20741;-64
2021/12/09 01:32:29;0.00;0.00;0.62;0.00;0.00;0.62;1.77;1.07;;;21.40;26.60;;;;;;2265418;61;20365;-64
2021/12/09 01:35:16;0.00;0.00;0.62;0.00;0.00;0.62;1.30;0.80;;;21.40;26.60;;;;;;2265124;61;20408;-64
2021/12/09 01:38:09;0.00;0.00;0.62;0.00;0.00;0.62;1.97;1.23;;;21.50;26.70;;;;;;2265425;61;20439;-63
2021/12/09 01:40:55;0.00;0.00;0.62;0.00;0.00;0.62;2.27;0.97;;;21.40;26.60;;;;;;2265691;61;20399;-64
2021/12/09 01:43:40;0.00;0.00;0.62;0.00;0.00;0.62;2.03;1.27;;;21.50;26.70;;;;;;2264976;61;20651;-64
2021/12/09 01:46:24;0.00;0.00;0.62;0.00;0.00;0.62;2.10;0.90;;;21.50;26.70;;;;;;2265171;61;20569;-64
2021/12/09 01:49:09;0.00;0.00;0.62;0.00;0.00;0.62;2.20;1.17;;;21.50;26.70;;;;;;2265197;61;20362;-64
2021/12/09 01:51:55;0.00;0.00;0.62;0.00;0.00;0.62;1.93;1.30;;;21.50;26.70;;;;;;2264965;61;20380;-65
2021/12/09 01:54:39;0.00;0.00;0.62;0.00;0.00;0.62;2.27;1.50;;;21.50;26.70;;;;;;2265539;61;20341;-65
2021/12/09 01:57:24;0.00;0.00;0.62;0.00;0.00;0.62;2.80;2.00;;;21.50;26.60;;;;;;2261869;61;20429;-65
2021/12/09 02:00:13;0.00;0.00;0.62;0.00;0.00;0.62;2.73;2.30;;;21.50;26.60;;;;;;2265199;61;20427;-64
2021/12/09 02:02:58;0.00;0.00;0.62;0.00;0.00;0.62;3.93;2.77;;;21.50;26.50;;;;;;2265495;61;20495;-63
2021/12/09 02:05:43;0.00;0.00;0.62;0.00;0.00;0.62;3.67;3.10;;;21.50;26.50;;;;;;2265053;61;20356;-64
2021/12/09 02:08:30;0.00;0.00;0.62;0.00;0.00;0.62;3.97;3.30;;;21.50;26.40;;;;;;2265144;61;20353;-64
2021/12/09 02:11:15;0.00;0.00;0.62;0.00;0.00;0.62;4.70;3.93;;;21.40;26.30;;;;;;2265150;61;20709;-64
2021/12/09 02:14:00;0.00;0.00;0.62;0.00;0.00;0.62;4.37;3.70;;;21.40;26.30;;;;;;2265322;61;20391;-64
2021/12/09 02:16:45;0.00;0.00;0.62;0.00;0.00;0.62;5.73;4.63;;;21.40;26.20;;;;;;2265022;61;20369;-64
2021/12/09 02:19:29;0.00;0.00;0.62;0.00;0.00;0.62;5.20;4.70;;;21.40;26.20;;;;;;2264825;61;20365;-64
2021/12/09 02:22:16;0.00;0.00;0.62;0.00;0.00;0.62;7.37;5.70;;;21.40;26.20;;;;;;2265495;61;20357;-64
2021/12/09 02:25:00;0.00;0.00;0.62;0.00;0.00;0.62;7.70;5.90;;;21.40;26.10;;;;;;2265927;61;20388;-64
2021/12/09 02:27:46;0.00;0.00;0.62;0.00;0.00;0.62;6.30;5.37;;;21.40;26.10;;;;;;2265775;61;20402;-64
2021/12/09 02:30:31;0.00;0.00;0.62;0.00;0.00;0.62;6.90;5.70;;;21.30;26.00;;;;;;2265529;61;20578;-64
2021/12/09 02:33:15;0.00;0.00;0.62;0.00;0.00;0.62;7.43;6.10;;;21.30;26.00;;;;;;2266272;61;20571;-64
2021/12/09 02:36:00;0.00;0.00;0.62;0.00;0.00;0.62;6.63;5.50;;;21.30;26.00;;;;;;2265985;61;20361;-64
2021/12/09 02:38:49;0.00;0.00;0.62;0.00;0.00;0.62;9.20;7.20;;;21.30;26.00;;;;;;2265539;61;20368;-64
2021/12/09 02:41:35;0.00;0.00;0.62;0.00;0.00;0.62;7.80;6.90;;;21.30;25.90;;;;;;2265799;61;20447;-64
2021/12/09 02:44:21;0.00;0.00;0.62;0.00;0.00;0.62;7.40;6.60;;;21.20;25.90;;;;;;2265660;61;20782;-64
2021/12/09 02:47:06;0.00;0.00;0.62;0.00;0.00;0.62;7.63;6.87;;;21.20;25.80;;;;;;2266114;61;20423;-64
2021/12/09 02:49:51;0.00;0.00;0.62;0.00;0.00;0.62;9.43;8.20;;;21.20;26.30;;;;;;2265660;61;20365;-64
2021/12/09 02:52:36;0.00;0.00;0.62;0.00;0.00;0.62;8.53;7.10;;;21.20;25.90;;;;;;2265450;61;20357;-64
2021/12/09 02:55:22;0.00;0.00;0.62;0.00;0.00;0.62;10.23;8.27;;;21.10;25.80;;;;;;2266411;61;20468;-64
2021/12/09 02:58:07;0.00;0.00;0.62;0.00;0.00;0.62;9.13;8.10;;;21.10;25.80;;;;;;2265862;61;20385;-64
2021/12/09 03:00:58;0.00;0.00;0.62;0.00;0.00;0.62;9.97;7.80;;;21.10;25.80;;;;;;2265609;61;20376;-64
2021/12/09 03:03:50;0.00;0.00;0.62;0.00;0.00;0.62;8.33;7.40;;;21.00;25.70;;;;;;2265868;61;20381;-64
2021/12/09 03:06:41;0.00;0.00;0.62;0.00;0.00;0.62;8.60;7.70;;;21.00;25.70;;;;;;2265675;61;20361;-64
2021/12/09 03:09:28;0.00;0.00;0.62;0.00;0.00;0.62;9.07;7.43;;;21.00;25.70;;;;;;2265871;61;20356;-64
2021/12/09 03:12:16;0.00;0.00;0.62;0.00;0.00;0.62;11.40;8.43;;;21.00;25.70;;;;;;2265543;61;20379;-64
2021/12/09 03:15:03;0.00;0.00;0.62;0.00;0.00;0.62;10.93;9.23;;;20.90;25.70;;;;;;2265782;61;20510;-64
2021/12/09 03:17:50;0.00;0.00;0.62;0.00;0.00;0.62;11.50;9.83;;;20.90;25.60;;;;;;2265833;61;20415;-63
2021/12/09 03:20:34;0.00;0.00;0.62;0.00;0.00;0.62;11.77;9.10;;;20.90;25.60;;;;;;2265544;61;20416;-64
2021/12/09 03:23:19;0.00;0.00;0.62;0.00;0.00;0.62;11.10;8.80;;;20.90;25.70;;;;;;2265693;61;20360;-64
2021/12/09 03:26:03;0.00;0.00;0.62;0.00;0.00;0.62;13.23;9.93;;;20.90;25.60;;;;;;2265597;61;20388;-64
2021/12/09 03:28:49;0.00;0.00;0.62;0.00;0.00;0.62;11.30;9.27;;;20.80;25.60;;;;;;2265492;61;20717;-63
2021/12/09 03:31:37;0.00;0.00;0.62;0.00;0.00;0.62;11.90;9.93;;;20.80;25.50;;;;;;2265758;61;20455;-64
2021/12/09 03:34:25;0.00;0.00;0.62;0.00;0.00;0.62;12.13;10.67;;;20.80;25.60;;;;;;2265505;61;20596;-64
2021/12/09 03:37:17;0.00;0.00;0.62;0.00;0.00;0.62;12.17;9.57;;;20.80;25.60;;;;;;2265630;61;20404;-64
2021/12/09 03:40:06;0.00;0.00;0.62;0.00;0.00;0.62;12.37;9.70;;;20.80;25.60;;;;;;2265821;61;20447;-63
2021/12/09 03:42:50;0.00;0.00;0.62;0.00;0.00;0.62;10.97;9.10;;;20.70;25.50;;;;;;2265688;61;20388;-64
2021/12/09 03:45:36;0.00;0.00;0.62;0.00;0.00;0.62;12.20;9.17;;;20.70;25.50;;;;;;2265740;61;20365;-63
2021/12/09 03:48:21;0.00;0.00;0.62;0.00;0.00;0.62;13.10;11.03;;;20.70;25.50;;;;;;2265503;61;20740;-64
2021/12/09 03:51:06;0.00;0.00;0.62;0.00;0.00;0.62;12.93;10.27;;;20.70;25.50;;;;;;2265379;61;20608;-64
2021/12/09 03:53:53;0.00;0.00;0.62;0.00;0.00;0.62;12.47;10.50;;;20.70;25.50;;;;;;2265917;61;20567;-63
2021/12/09 03:56:39;0.00;0.00;0.62;0.00;0.00;0.62;12.73;11.03;;;20.70;25.50;;;;;;2265597;61;20357;-64
2021/12/09 03:59:24;0.00;0.00;0.62;0.00;0.00;0.62;14.20;10.80;;;20.60;25.40;;;;;;2265230;61;20415;-64
2021/12/09 04:02:11;0.00;0.00;0.62;0.00;0.00;0.62;11.33;9.70;;;20.60;25.50;;;;;;2265840;61;20365;-64
2021/12/09 04:04:55;0.00;0.00;0.62;0.00;0.00;0.62;12.40;10.90;;;20.60;25.50;;;;;;2265698;61;20385;-64
2021/12/09 04:07:40;0.00;0.00;0.62;0.00;0.00;0.62;12.93;11.00;;;20.60;25.50;;;;;;2265371;61;20364;-64
2021/12/09 04:10:24;0.00;0.00;0.62;0.00;0.00;0.62;12.47;9.93;;;20.60;25.50;;;;;;2265319;61;20757;-64
2021/12/09 04:13:10;0.00;0.00;0.62;0.00;0.00;0.62;14.27;11.40;;;20.50;25.40;;;;;;2265713;61;20365;-64
2021/12/09 04:15:54;0.00;0.00;0.62;0.00;0.00;0.62;13.10;10.70;;;20.50;25.40;;;;;;2265782;61;20361;-64
2021/12/09 04:18:42;0.00;0.00;0.62;0.00;0.00;0.62;14.10;11.43;;;20.50;25.40;;;;;;2265309;61;20404;-64
2021/12/09 04:21:27;0.00;0.00;0.62;0.00;0.00;0.62;14.87;11.40;;;20.50;25.40;;;;;;2265368;61;20388;-63
2021/12/09 04:24:15;0.00;0.00;0.62;0.00;0.00;0.62;12.53;11.13;;;20.50;25.40;;;;;;2265931;61;20814;-64
2021/12/09 04:27:00;0.00;0.00;0.62;0.00;0.00;0.62;11.70;9.40;;;20.50;25.90;;;;;;2265530;61;20364;-64
2021/12/09 04:29:44;0.00;0.00;0.62;0.00;0.00;0.62;16.17;11.90;;;20.50;25.90;;;;;;2265268;61;20376;-64
2021/12/09 04:32:29;0.00;0.00;0.62;0.00;0.00;0.62;14.20;11.30;;;20.50;25.40;;;;;;2265566;61;20360;-65
2021/12/09 04:35:15;0.00;0.00;0.62;0.00;0.00;0.62;12.80;10.77;;;20.40;25.40;;;;;;2265534;61;20373;-64
2021/12/09 04:37:59;0.00;0.00;0.62;0.00;0.00;0.62;13.60;10.73;;;20.40;25.40;;;;;;2265559;61;20741;-64
2021/12/09 04:40:44;0.00;0.00;0.62;0.00;0.00;0.62;12.50;10.00;;;20.40;25.30;;;;;;2265240;61;20468;-65
2021/12/09 04:43:29;0.00;0.00;0.62;0.00;0.00;0.62;12.20;9.90;;;20.40;25.40;;;;;;2267732;61;20600;-65
2021/12/09 04:46:14;0.00;0.00;0.62;0.00;0.00;0.62;14.37;10.70;;;20.40;25.40;;;;;;2265923;61;20441;-65
2021/12/09 04:48:59;0.00;0.00;0.62;0.00;0.00;0.62;12.73;10.50;;;20.40;25.40;;;;;;2267874;61;20601;-65
2021/12/09 04:51:45;0.00;0.00;0.62;0.00;0.00;0.62;11.67;10.37;;;20.30;25.30;;;;;;2265141;61;20391;-64
2021/12/09 04:54:30;0.00;0.00;0.62;0.00;0.00;0.62;12.43;11.07;;;20.30;25.30;;;;;;2265785;61;20361;-64
2021/12/09 04:57:15;0.00;0.00;0.62;0.00;0.00;0.62;13.70;9.87;;;20.30;25.30;;;;;;2265477;61;20356;-64
2021/12/09 05:00:00;0.00;0.00;0.62;0.00;0.00;0.62;11.27;9.60;;;20.30;25.30;;;;;;2265294;61;20404;-64
2021/12/09 05:05:35;0.00;0.00;0.62;0.00;0.00;0.62;10.43;8.90;;;20.30;25.30;;;;;;2265350;61;20443;-64
2021/12/09 05:08:27;0.00;0.00;0.62;0.00;0.00;0.62;10.60;9.40;;;20.30;25.30;;;;;;2265863;61;20362;-64
2021/12/09 05:11:26;0.00;0.00;0.62;0.00;0.00;0.62;12.45;10.85;;;20.30;25.30;;;;;;2264847;61;20376;-64
2021/12/09 05:14:11;0.00;0.00;0.62;0.00;0.00;0.62;12.93;10.67;;;20.20;25.20;;;;;;2265242;61;20235;-64
2021/12/09 05:16:56;0.00;0.00;0.62;0.00;0.00;0.62;12.70;10.27;;;20.20;25.20;;;;;;2265299;61;20372;-63
2021/12/09 05:19:41;0.00;0.00;0.62;0.00;0.00;0.62;12.10;10.53;;;20.20;25.10;;;;;;2265104;61;20392;-64
2021/12/09 05:22:26;0.00;0.00;0.62;0.00;0.00;0.62;11.70;9.57;;;20.20;25.20;;;;;;2265693;61;20579;-64
2021/12/09 05:25:12;0.00;0.00;0.62;0.00;0.00;0.62;11.20;10.00;;;20.20;25.10;;;;;;2265467;61;20479;-64
2021/12/09 05:27:57;0.00;0.00;0.62;0.00;0.00;0.62;11.80;9.73;;;20.20;25.70;;;;;;2265082;61;20451;-64
2021/12/09 05:32:07;0.00;0.00;0.62;0.00;0.00;0.62;12.90;9.80;;;20.20;25.20;;;;;;2266039;61;20588;-64
2021/12/09 05:33:48;0.00;0.00;0.62;0.00;0.00;0.62;10.67;9.57;;;20.20;25.20;;;;;;2265459;61;20357;-64
2021/12/09 05:36:33;0.00;0.00;0.62;0.00;0.00;0.62;11.03;9.30;;;20.10;25.20;;;;;;2265249;61;20434;-63
2021/12/09 05:39:18;0.00;0.00;0.62;0.00;0.00;0.62;11.80;8.80;;;20.10;25.20;;;;;;2265011;61;20360;-63
2021/12/09 05:42:05;0.00;0.00;0.62;0.00;0.00;0.62;13.00;10.00;;;20.10;25.20;;;;;;2265147;61;20395;-63
2021/12/09 05:44:51;0.00;0.00;0.62;0.00;0.00;0.62;12.63;9.60;;;20.10;25.20;;;;;;2265551;61;20423;-64
2021/12/09 05:47:35;0.00;0.00;0.62;0.00;0.00;0.62;10.67;8.63;;;20.10;25.30;;;;;;2265443;61;20389;-64
2021/12/09 05:50:20;0.00;0.00;0.62;0.00;0.00;0.62;10.00;8.70;;;20.00;25.20;;;;;;2264844;61;20380;-64
2021/12/09 05:53:05;0.00;0.00;0.62;0.00;0.00;0.62;11.90;9.23;;;20.00;25.20;;;;;;2265508;61;20702;-64
2021/12/09 05:55:49;0.00;0.00;0.62;0.00;0.00;0.62;11.93;9.63;;;20.00;25.20;;;;;;2265315;61;20426;-63
2021/12/09 05:58:35;0.00;0.00;0.62;0.00;0.00;0.62;12.47;10.13;;;20.00;25.20;;;;;;2265892;61;20567;-63
2021/12/09 06:01:21;0.00;0.00;0.62;0.00;0.00;0.62;11.60;9.77;;;20.00;25.20;;;;;;2266416;61;20391;-64
2021/12/09 06:04:07;0.00;0.00;0.62;0.00;0.00;0.62;13.83;10.83;;;20.00;25.20;;;;;;2266519;61;20868;-63
2021/12/09 06:06:52;0.00;0.00;0.62;0.00;0.00;0.62;11.20;9.60;;;20.00;25.70;;;;;;2266822;61;20364;-63
2021/12/09 06:09:37;0.00;0.00;0.62;0.00;0.00;0.62;11.90;10.17;;;20.00;25.20;;;;;;2266373;61;20357;-64
2021/12/09 06:12:22;0.00;0.00;0.62;0.00;0.00;0.62;11.83;10.30;;;20.00;25.20;;;;;;2266341;61;20391;-63
2021/12/09 06:15:10;0.00;0.00;0.62;0.00;0.00;0.62;12.50;9.73;;;20.00;25.20;;;;;;2267145;61;20376;-64
2021/12/09 06:17:54;0.00;0.00;0.62;0.00;0.00;0.62;14.60;10.50;;;19.90;25.70;;;;;;2266373;61;20376;-63
2021/12/09 06:20:39;0.00;0.00;0.62;0.00;0.00;0.62;13.23;11.17;;;19.90;25.20;;;;;;2266251;61;20384;-64
2021/12/09 06:23:24;0.00;0.00;0.62;0.00;0.00;0.62;12.53;10.63;;;19.90;25.20;;;;;;2266742;61;20357;-63
2021/12/09 06:26:09;0.00;0.00;0.62;0.00;0.00;0.62;17.93;11.57;;;19.90;25.20;;;;;;2266439;61;20376;-63
2021/12/09 06:28:53;0.00;0.00;0.62;0.00;0.00;0.62;12.07;9.43;;;19.90;25.20;;;;;;2266631;61;20725;-63
2021/12/09 06:31:39;0.00;0.00;0.62;0.00;0.00;0.62;15.50;10.73;;;19.90;25.20;;;;;;2266145;61;20373;-64
2021/12/09 06:34:23;0.00;0.00;0.62;0.00;0.00;0.62;14.57;10.80;;;19.90;25.20;;;;;;2266347;61;20372;-64
2021/12/09 06:37:08;0.00;0.00;0.62;0.00;0.00;0.62;12.80;10.13;;;19.90;25.20;;;;;;2267013;61;20410;-64
2021/12/09 06:39:53;0.00;0.00;0.62;0.00;0.00;0.62;14.47;10.90;;;19.90;25.20;;;;;;2266306;61;20395;-63
2021/12/09 06:42:38;0.00;0.00;0.62;0.00;0.00;0.62;13.70;11.10;;;19.80;25.20;;;;;;2266326;61;20373;-63
2021/12/09 06:45:23;0.00;0.00;0.62;0.00;0.00;0.62;15.47;11.90;;;19.80;25.20;;;;;;2266665;61;20482;-64
2021/12/09 06:48:10;0.00;0.00;0.62;0.00;0.00;0.62;14.60;11.13;;;19.80;25.20;;;;;;2266625;61;20361;-63
2021/12/09 06:50:55;0.00;0.00;0.62;0.00;0.00;0.62;16.77;11.80;;;19.80;25.20;;;;;;2266545;61;20400;-64
2021/12/09 06:53:40;0.00;0.00;0.62;0.00;0.00;0.62;14.23;11.70;;;19.80;25.20;;;;;;2266162;61;20364;-63
2021/12/09 06:56:27;0.00;0.00;0.62;0.00;0.00;0.62;13.33;10.80;;;19.80;25.20;;;;;;2266396;61;20689;-64
2021/12/09 06:59:12;0.00;0.00;0.62;0.00;0.00;0.62;14.67;11.00;;;19.80;25.20;;;;;;2269188;61;20364;-63
2021/12/09 07:01:56;0.00;0.00;0.62;0.00;0.00;0.62;12.10;10.60;;;19.80;25.20;;;;;;2268458;61;20381;-64
2021/12/09 07:04:42;0.00;0.00;0.62;0.00;0.00;0.62;14.83;11.40;;;19.80;25.30;;;;;;2266222;61;20435;-63
2021/12/09 07:07:27;0.00;0.00;0.62;0.00;0.00;0.62;14.53;10.73;;;19.70;25.20;;;;;;2266528;61;20380;-63
2021/12/09 07:10:14;0.00;0.00;0.62;0.00;0.00;0.62;15.93;11.43;;;19.70;25.20;;;;;;2265672;61;20461;-63
2021/12/09 07:12:58;0.00;0.00;0.62;0.00;0.00;0.62;14.80;11.30;;;19.70;25.20;;;;;;2265804;61;20416;-63
2021/12/09 07:15:44;0.00;0.00;0.62;0.00;0.00;0.62;16.27;12.03;;;19.70;25.20;;;;;;2265520;61;20377;-69
2021/12/09 07:18:28;0.00;0.00;0.62;0.00;0.00;0.62;14.50;10.60;;;19.70;25.20;;;;;;2265622;61;20392;-64
2021/12/09 07:21:14;0.00;0.00;0.62;0.00;0.00;0.62;13.60;10.90;;;19.70;25.20;;;;;;2266011;61;20380;-64
2021/12/09 07:23:59;0.00;0.00;0.62;0.00;0.00;0.62;15.70;11.50;;;19.60;25.20;;;;;;2265510;61;20507;-64
2021/12/09 07:26:45;0.00;0.00;0.62;0.00;0.00;0.62;15.50;11.70;;;19.70;25.30;;;;;;2265535;61;20345;-64
2021/12/09 07:29:31;0.00;0.00;0.62;0.00;0.00;0.62;17.20;13.83;;;19.60;25.20;;;;;;2262523;61;20364;-65
2021/12/09 07:32:15;0.00;0.00;0.62;0.00;0.00;0.62;15.50;11.30;;;19.60;25.10;;;;;;2265815;61;20380;-64
2021/12/09 07:35:00;0.00;0.00;0.62;0.00;0.00;0.62;16.17;12.50;;;19.60;25.00;;;;;;2265717;61;20361;-64
2021/12/09 07:37:46;0.00;0.00;0.62;0.00;0.00;0.62;16.53;12.50;;;19.60;25.00;;;;;;2265467;61;20360;-63
2021/12/09 07:40:32;0.00;0.00;0.62;0.00;0.00;0.62;14.97;11.73;;;19.50;25.00;;;;;;2265511;61;20377;-63
2021/12/09 07:43:18;0.00;0.00;0.62;0.00;0.00;0.62;16.23;12.43;;;19.50;25.00;;;;;;2262729;61;20573;-64
2021/12/09 07:46:03;0.00;0.00;0.62;0.00;0.00;0.62;16.00;12.33;;;19.50;25.00;;;;;;2265708;61;20701;-63
2021/12/09 07:48:48;0.00;0.00;0.62;0.00;0.00;0.62;17.03;11.87;;;19.50;25.00;;;;;;2265447;61;20361;-63
2021/12/09 07:51:32;0.00;0.00;0.62;0.00;0.00;0.62;16.00;12.07;;;19.50;25.00;;;;;;2265597;61;20629;-63
2021/12/09 07:54:19;0.00;0.00;0.62;0.00;0.00;0.62;16.27;12.57;;;19.50;25.00;;;;;;2265770;61;20600;-63
2021/12/09 07:57:04;0.00;0.00;0.62;0.00;0.00;0.62;14.50;11.47;;;19.50;25.00;;;;;;2265504;61;20369;-63
2021/12/09 07:59:49;0.00;0.00;0.62;0.00;0.00;0.62;18.17;12.23;;;19.50;25.00;;;;;;2265353;61;20436;-63
2021/12/09 08:02:33;0.00;0.00;0.62;0.00;0.00;0.62;16.10;12.00;;;19.50;25.10;;;;;;2265667;61;20368;-62
2021/12/09 08:05:19;0.00;0.00;0.62;0.00;0.00;0.62;16.17;12.27;;;19.40;25.00;;;;;;2265635;61;20380;-63
2021/12/09 08:08:05;0.00;0.00;0.62;0.00;0.00;0.62;15.67;11.50;;;19.40;25.00;;;;;;2265490;61;20577;-64
2021/12/09 08:10:51;0.00;0.00;0.62;0.00;0.00;0.62;18.07;13.73;;;19.40;25.00;;;;;;2265349;61;20385;-63
2021/12/09 08:13:36;0.00;0.00;0.62;0.00;0.00;0.62;17.20;12.50;;;19.40;25.00;;;;;;2265734;61;20373;-63
2021/12/09 08:16:21;0.00;0.00;0.62;0.00;0.00;0.62;18.60;14.00;;;19.40;25.00;;;;;;2265554;61;20445;-63
2021/12/09 08:19:09;0.00;0.00;0.62;0.00;0.00;0.62;18.03;13.37;;;19.40;25.00;;;;;;2265118;61;20361;-64
2021/12/09 08:21:54;0.00;0.00;0.62;0.00;0.00;0.62;17.03;11.80;;;19.40;25.00;;;;;;2264780;61;20392;-63
2021/12/09 08:24:38;0.00;0.00;0.62;0.00;0.00;0.62;17.00;12.83;;;19.40;25.00;;;;;;2265545;61;20403;-63
2021/12/09 08:27:24;0.00;0.00;0.62;0.00;0.00;0.62;16.00;12.43;;;19.40;25.00;;;;;;2267958;61;20357;-63
2021/12/09 08:30:12;0.00;0.00;0.62;0.00;0.00;0.62;17.20;12.77;;;19.40;25.00;;;;;;2265195;61;20742;-63
2021/12/09 08:32:57;0.00;0.00;0.62;0.00;0.00;0.62;16.90;13.30;;;19.40;25.00;;;;;;2265163;61;20419;-64
2021/12/09 08:35:42;0.00;0.00;0.62;0.00;0.00;0.62;17.90;13.20;;;19.30;25.00;;;;;;2266070;61;20340;-65
2021/12/09 08:38:26;0.00;0.00;0.62;0.00;0.00;0.62;17.27;12.77;;;19.40;25.10;;;;;;2265230;61;20404;-64
2021/12/09 08:41:14;0.00;0.00;0.62;0.00;0.00;0.62;16.33;12.63;;;19.40;25.70;;;;;;2265122;61;20476;-64
2021/12/09 08:44:00;0.00;0.00;0.62;0.00;0.00;0.62;19.27;13.20;;;19.40;25.20;;;;;;2265886;61;20423;-64
2021/12/09 08:46:44;0.00;0.00;0.62;0.00;0.00;0.62;18.87;12.37;;;19.40;25.20;;;;;;2265318;61;20489;-63
2021/12/09 08:49:29;0.00;0.00;0.62;0.00;0.00;0.62;16.67;12.27;;;19.40;25.30;;;;;;2265712;61;20396;-63
2021/12/09 08:52:13;0.00;0.00;0.62;0.00;0.00;0.62;15.67;11.10;;;19.40;25.30;;;;;;2265282;61;20609;-64
2021/12/09 08:54:58;0.00;0.00;0.62;0.00;0.00;0.62;17.50;12.30;;;19.40;25.30;;;;;;2265220;61;20722;-62
2021/12/09 08:57:43;0.00;0.00;0.62;0.00;0.00;0.62;15.43;11.40;;;19.40;25.30;;;;;;2265948;61;20505;-62
2021/12/09 09:00:30;0.00;0.00;0.62;0.00;0.00;0.62;17.20;10.90;;;19.40;25.30;;;;;;2265142;61;20380;-64
2021/12/09 09:03:15;0.00;0.00;0.62;0.00;0.00;0.62;14.43;10.70;;;19.40;25.40;;;;;;2265246;61;20357;-64
2021/12/09 09:06:01;0.00;0.00;0.62;0.00;0.00;0.62;15.77;11.90;;;19.50;25.50;;;;;;2265739;61;20772;-61
2021/12/09 09:08:50;0.00;0.00;0.62;0.00;0.00;0.62;11.60;10.40;;;19.50;25.50;;;;;;2267853;61;20749;-62
2021/12/09 09:11:35;0.00;0.00;0.62;0.00;0.00;0.62;12.90;10.67;;;19.50;25.60;;;;;;2265524;61;20377;-65
2021/12/09 09:14:20;0.00;0.00;0.62;0.00;0.00;0.62;14.00;9.77;;;19.50;25.60;;;;;;2263162;61;20412;-62
2021/12/09 09:17:06;0.00;0.00;0.62;0.00;0.00;0.62;14.77;10.40;;;19.50;25.70;;;;;;2261222;61;20393;-62
2021/12/09 09:19:50;0.00;0.00;0.62;0.00;0.00;0.62;12.87;9.50;;;19.50;25.70;;;;;;2261720;61;20362;-62
2021/12/09 09:22:35;0.00;0.00;0.62;0.00;0.00;0.62;10.60;8.63;;;19.50;25.70;;;;;;2257860;61;20354;-61
2021/12/09 09:25:29;0.00;0.00;0.62;0.00;0.00;0.62;13.63;10.07;;;19.60;25.70;;;;;;2261270;61;20444;-61
2021/12/09 09:28:14;0.00;0.00;0.62;0.00;0.00;0.62;10.07;8.80;;;19.60;25.70;;;;;;2261478;61;20742;-60
2021/12/09 09:31:03;0.00;0.00;0.62;0.00;0.00;0.62;12.20;8.37;;;19.60;25.70;;;;;;2261412;61;20614;-60
2021/12/09 09:33:49;0.00;0.00;0.62;0.00;0.00;0.62;13.27;8.90;;;19.60;25.80;;;;;;2261368;61;20358;-59
2021/12/09 09:36:39;0.00;0.00;0.62;0.00;0.00;0.62;13.03;9.67;;;19.60;25.90;;;;;;2261200;61;20366;-60
2021/12/09 09:39:29;0.00;0.00;0.62;0.00;0.00;0.62;10.87;7.83;;;19.70;26.00;;;;;;2261044;61;20648;-64
2021/12/09 09:44:58;0.00;0.00;0.62;0.00;0.00;0.62;9.13;7.90;;;19.70;26.00;;;;;;2261251;61;20393;-60
2021/12/09 09:47:43;0.00;0.00;0.62;0.00;0.00;0.62;10.87;8.10;;;19.70;26.10;;;;;;2262861;61;20400;-62
2021/12/09 09:50:29;0.00;0.00;0.62;0.00;0.00;0.62;11.77;8.83;;;19.80;26.20;;;;;;2265206;61;20492;-61
2021/12/09 09:53:15;0.00;0.00;0.62;0.00;0.00;0.62;8.80;7.80;;;19.80;26.20;;;;;;2265320;61;20709;-61
2021/12/09 09:56:00;0.00;0.00;0.62;0.00;0.00;0.62;11.07;8.23;;;19.80;26.20;;;;;;2265508;61;20402;-60
2021/12/09 09:58:47;0.00;0.00;0.62;0.00;0.00;0.62;9.93;7.47;;;19.80;26.20;;;;;;2265010;61;20357;-64
2021/12/09 10:01:35;0.00;0.00;0.62;0.00;0.00;0.62;9.93;7.83;;;19.80;26.30;;;;;;2265152;61;20603;-62
2021/12/09 10:04:32;0.00;0.00;0.62;0.00;0.00;0.62;8.87;7.13;;;19.80;26.20;;;;;;2265659;61;20460;-61
2021/12/09 10:07:21;0.00;0.00;0.62;0.00;0.00;0.62;10.43;8.13;;;19.90;26.20;;;;;;2265166;61;20368;-61
2021/12/09 10:10:08;0.00;0.00;0.62;0.00;0.00;0.62;12.57;8.93;;;19.90;26.10;;;;;;2264904;61;20385;-62
2021/12/09 10:12:59;0.00;0.00;0.62;0.00;0.00;0.62;9.53;7.77;;;19.90;26.00;;;;;;2265213;61;20392;-61
2021/12/09 10:15:47;0.00;0.00;0.62;0.00;0.00;0.62;9.90;8.03;;;19.90;26.00;;;;;;2261989;61;20357;-60
2021/12/09 10:18:37;0.00;0.00;0.62;0.00;0.00;0.62;10.20;7.70;;;19.90;26.00;;;;;;2265126;61;20376;-60
2021/12/09 10:21:24;0.00;0.00;0.62;0.00;0.00;0.62;9.40;8.20;;;20.00;26.10;;;;;;2261966;61;20401;-61
2021/12/09 10:24:11;0.00;0.00;0.62;0.00;0.00;0.62;9.60;7.20;;;20.00;26.20;;;;;;2265009;61;20885;-61
2021/12/09 10:26:56;0.00;0.00;0.62;0.00;0.00;0.62;10.87;8.13;;;20.00;26.20;;;;;;2265270;61;20360;-62
2021/12/09 10:29:44;0.00;0.00;0.62;0.00;0.00;0.62;10.10;7.50;;;20.00;26.30;;;;;;2264994;61;20352;-60
2021/12/09 10:32:34;0.00;0.00;0.62;0.00;0.00;0.62;8.60;7.07;;;20.00;26.30;;;;;;2264991;61;20584;-62
2021/12/09 10:35:20;0.00;0.00;0.62;0.00;0.00;0.62;7.63;6.67;;;20.00;26.20;;;;;;2265017;61;20721;-62
2021/12/09 10:38:07;0.00;0.00;0.62;0.00;0.00;0.62;8.90;7.13;;;20.10;26.30;;;;;;2265070;61;20399;-62
2021/12/09 10:40:53;0.00;0.00;0.62;0.00;0.00;0.62;9.73;7.60;;;20.10;26.20;;;;;;2265320;61;20817;-62
2021/12/09 10:43:49;0.00;0.00;0.62;0.00;0.00;0.62;9.67;7.03;;;20.10;26.20;;;;;;2264535;61;20360;-62
2021/12/09 10:46:53;0.00;0.00;0.62;0.00;0.00;0.62;11.07;7.30;;;20.10;26.20;;;;;;2265671;61;20419;-62
2021/12/09 10:50:04;0.00;0.00;0.62;0.00;0.00;0.62;9.50;7.10;;;20.10;26.20;;;;;;2265966;61;20392;-62
2021/12/09 10:52:54;0.00;0.00;0.62;0.00;0.00;0.62;9.70;7.23;;;20.10;26.10;;;;;;2265698;61;20361;-63
2021/12/09 10:55:41;0.00;0.00;0.62;0.00;0.00;0.62;8.43;7.30;;;20.20;26.20;;;;;;2266013;61;20492;-62